sensor_id;sensor_type;location;lat;lon;timestamp;P1;durP1;ratioP1;P2;durP2;ratioP2
11777;SDS011;5946;51.770;8.548;2023-03-20T00:01:44;73.23;;;35.17;;
11777;SDS011;5946;51.770;8.548;2023-03-20T00:04:11;74.73;;;34.20;;
11777;SDS011;5946;51.770;8.548;2023-03-20T00:06:37;75.73;;;34.97;;
11777;SDS011;5946;51.770;8.548;2023-03-20T00:09:03;73.60;;;34.43;;
11777;SDS011;5946;51.770;8.548;2023-03-20T00:11:30;74.43;;;34.27;;
11777;SDS011;5946;51.770;8.548;2023-03-20T00:14:04;73.83;;;34.83;;
11777;SDS011;5946;51.770;8.548;2023-03-20T00:16:31;79.60;;;35.60;;
11777;SDS011;5946;51.770;8.548;2023-03-20T00:18:57;79.07;;;35.17;;
11777;SDS011;5946;51.770;8.548;2023-03-20T00:21:23;78.13;;;35.33;;
11777;SDS011;5946;51.770;8.548;2023-03-20T00:23:50;74.97;;;35.27;;
11777;SDS011;5946;51.770;8.548;2023-03-20T00:26:17;75.87;;;34.53;;
11777;SDS011;5946;51.770;8.548;2023-03-20T00:31:25;78.13;;;35.83;;
11777;SDS011;5946;51.770;8.548;2023-03-20T00:33:52;82.80;;;37.70;;
11777;SDS011;5946;51.770;8.548;2023-03-20T00:36:20;89.70;;;37.13;;
11777;SDS011;5946;51.770;8.548;2023-03-20T00:38:45;84.00;;;37.27;;
11777;SDS011;5946;51.770;8.548;2023-03-20T00:41:24;86.73;;;37.83;;
11777;SDS011;5946;51.770;8.548;2023-03-20T00:43:52;92.30;;;37.77;;
11777;SDS011;5946;51.770;8.548;2023-03-20T00:46:18;98.60;;;40.37;;
11777;SDS011;5946;51.770;8.548;2023-03-20T00:48:45;89.67;;;37.97;;
11777;SDS011;5946;51.770;8.548;2023-03-20T00:51:11;85.13;;;37.27;;
11777;SDS011;5946;51.770;8.548;2023-03-20T00:53:37;81.37;;;35.27;;
11777;SDS011;5946;51.770;8.548;2023-03-20T00:56:03;88.00;;;37.33;;
11777;SDS011;5946;51.770;8.548;2023-03-20T00:58:29;86.50;;;36.47;;
11777;SDS011;5946;51.770;8.548;2023-03-20T01:00:55;87.63;;;38.40;;
11777;SDS011;5946;51.770;8.548;2023-03-20T01:03:22;95.70;;;38.00;;
11777;SDS011;5946;51.770;8.548;2023-03-20T01:05:49;103.03;;;39.97;;
11777;SDS011;5946;51.770;8.548;2023-03-20T01:08:17;104.97;;;41.67;;
11777;SDS011;5946;51.770;8.548;2023-03-20T01:10:43;107.47;;;42.23;;
11777;SDS011;5946;51.770;8.548;2023-03-20T01:13:43;104.13;;;42.17;;
11777;SDS011;5946;51.770;8.548;2023-03-20T01:16:02;111.93;;;44.17;;
11777;SDS011;5946;51.770;8.548;2023-03-20T01:18:28;108.83;;;44.37;;
11777;SDS011;5946;51.770;8.548;2023-03-20T01:20:54;101.70;;;41.93;;
11777;SDS011;5946;51.770;8.548;2023-03-20T01:23:20;98.17;;;41.90;;
11777;SDS011;5946;51.770;8.548;2023-03-20T01:25:47;97.80;;;40.67;;
11777;SDS011;5946;51.770;8.548;2023-03-20T01:28:20;101.77;;;41.03;;
11777;SDS011;5946;51.770;8.548;2023-03-20T01:30:47;91.13;;;39.73;;
11777;SDS011;5946;51.770;8.548;2023-03-20T01:33:17;89.37;;;38.97;;
11777;SDS011;5946;51.770;8.548;2023-03-20T01:35:43;84.07;;;36.60;;
11777;SDS011;5946;51.770;8.548;2023-03-20T01:38:14;76.33;;;36.43;;
11777;SDS011;5946;51.770;8.548;2023-03-20T01:40:46;79.20;;;36.23;;
11777;SDS011;5946;51.770;8.548;2023-03-20T01:43:14;79.43;;;35.57;;
11777;SDS011;5946;51.770;8.548;2023-03-20T01:45:44;77.17;;;35.03;;
11777;SDS011;5946;51.770;8.548;2023-03-20T01:48:15;76.30;;;33.37;;
11777;SDS011;5946;51.770;8.548;2023-03-20T01:50:41;77.03;;;33.50;;
11777;SDS011;5946;51.770;8.548;2023-03-20T01:53:09;69.27;;;33.00;;
11777;SDS011;5946;51.770;8.548;2023-03-20T01:55:36;76.60;;;31.73;;
11777;SDS011;5946;51.770;8.548;2023-03-20T01:58:05;75.37;;;32.13;;
11777;SDS011;5946;51.770;8.548;2023-03-20T02:00:32;74.40;;;33.07;;
11777;SDS011;5946;51.770;8.548;2023-03-20T02:02:58;75.17;;;33.47;;
11777;SDS011;5946;51.770;8.548;2023-03-20T02:05:24;65.77;;;30.73;;
11777;SDS011;5946;51.770;8.548;2023-03-20T02:08:12;62.33;;;30.83;;
11777;SDS011;5946;51.770;8.548;2023-03-20T02:10:40;75.20;;;31.27;;
11777;SDS011;5946;51.770;8.548;2023-03-20T02:13:06;68.50;;;31.93;;
11777;SDS011;5946;51.770;8.548;2023-03-20T02:15:32;66.70;;;30.23;;
11777;SDS011;5946;51.770;8.548;2023-03-20T02:17:59;68.37;;;30.23;;
11777;SDS011;5946;51.770;8.548;2023-03-20T02:20:33;65.60;;;30.30;;
11777;SDS011;5946;51.770;8.548;2023-03-20T02:40:58;67.67;;;30.87;;
11777;SDS011;5946;51.770;8.548;2023-03-20T02:44:10;68.47;;;31.50;;
11777;SDS011;5946;51.770;8.548;2023-03-20T02:51:36;66.57;;;30.90;;
11777;SDS011;5946;51.770;8.548;2023-03-20T02:56:56;65.50;;;30.10;;
11777;SDS011;5946;51.770;8.548;2023-03-20T02:59:31;75.43;;;31.30;;
11777;SDS011;5946;51.770;8.548;2023-03-20T03:02:01;73.57;;;31.07;;
11777;SDS011;5946;51.770;8.548;2023-03-20T03:04:30;78.17;;;31.53;;
11777;SDS011;5946;51.770;8.548;2023-03-20T03:06:58;75.53;;;32.40;;
11777;SDS011;5946;51.770;8.548;2023-03-20T03:09:26;74.10;;;32.40;;
11777;SDS011;5946;51.770;8.548;2023-03-20T03:11:55;80.53;;;33.53;;
11777;SDS011;5946;51.770;8.548;2023-03-20T03:14:28;75.13;;;32.03;;
11777;SDS011;5946;51.770;8.548;2023-03-20T03:16:55;81.60;;;34.10;;
11777;SDS011;5946;51.770;8.548;2023-03-20T03:19:23;88.07;;;35.83;;
11777;SDS011;5946;51.770;8.548;2023-03-20T03:21:50;82.77;;;33.60;;
11777;SDS011;5946;51.770;8.548;2023-03-20T03:27:27;84.93;;;34.87;;
11777;SDS011;5946;51.770;8.548;2023-03-20T03:30:00;83.23;;;34.13;;
11777;SDS011;5946;51.770;8.548;2023-03-20T03:32:28;90.10;;;35.47;;
11777;SDS011;5946;51.770;8.548;2023-03-20T03:34:55;94.70;;;37.80;;
11777;SDS011;5946;51.770;8.548;2023-03-20T03:40:04;101.40;;;41.87;;
11777;SDS011;5946;51.770;8.548;2023-03-20T03:42:41;115.53;;;45.27;;
11777;SDS011;5946;51.770;8.548;2023-03-20T03:45:16;109.40;;;45.67;;
11777;SDS011;5946;51.770;8.548;2023-03-20T03:50:35;107.23;;;43.97;;
11777;SDS011;5946;51.770;8.548;2023-03-20T03:53:03;104.40;;;44.07;;
11777;SDS011;5946;51.770;8.548;2023-03-20T03:55:33;106.83;;;44.13;;
11777;SDS011;5946;51.770;8.548;2023-03-20T03:58:02;101.37;;;44.70;;
11777;SDS011;5946;51.770;8.548;2023-03-20T04:00:29;105.80;;;44.50;;
11777;SDS011;5946;51.770;8.548;2023-03-20T04:02:56;106.80;;;45.13;;
11777;SDS011;5946;51.770;8.548;2023-03-20T04:05:23;94.20;;;41.87;;
11777;SDS011;5946;51.770;8.548;2023-03-20T04:07:52;84.80;;;40.73;;
11777;SDS011;5946;51.770;8.548;2023-03-20T04:10:18;84.77;;;40.47;;
11777;SDS011;5946;51.770;8.548;2023-03-20T04:12:44;85.20;;;37.67;;
11777;SDS011;5946;51.770;8.548;2023-03-20T04:15:13;84.83;;;39.80;;
11777;SDS011;5946;51.770;8.548;2023-03-20T04:17:39;79.47;;;37.93;;
11777;SDS011;5946;51.770;8.548;2023-03-20T04:20:06;79.57;;;38.43;;
11777;SDS011;5946;51.770;8.548;2023-03-20T04:22:32;72.93;;;37.23;;
11777;SDS011;5946;51.770;8.548;2023-03-20T04:24:59;74.40;;;36.40;;
11777;SDS011;5946;51.770;8.548;2023-03-20T04:27:26;81.13;;;37.27;;
11777;SDS011;5946;51.770;8.548;2023-03-20T04:29:52;73.43;;;36.87;;
11777;SDS011;5946;51.770;8.548;2023-03-20T04:32:18;76.03;;;38.23;;
11777;SDS011;5946;51.770;8.548;2023-03-20T04:34:44;74.70;;;37.47;;
11777;SDS011;5946;51.770;8.548;2023-03-20T04:37:10;72.43;;;36.47;;
11777;SDS011;5946;51.770;8.548;2023-03-20T04:39:36;71.83;;;36.87;;
11777;SDS011;5946;51.770;8.548;2023-03-20T04:42:04;74.27;;;37.70;;
11777;SDS011;5946;51.770;8.548;2023-03-20T04:44:30;68.27;;;36.87;;
11777;SDS011;5946;51.770;8.548;2023-03-20T04:46:56;65.27;;;35.93;;
11777;SDS011;5946;51.770;8.548;2023-03-20T04:49:22;64.50;;;34.60;;
11777;SDS011;5946;51.770;8.548;2023-03-20T04:51:48;64.87;;;35.50;;
11777;SDS011;5946;51.770;8.548;2023-03-20T04:54:14;58.93;;;34.47;;
11777;SDS011;5946;51.770;8.548;2023-03-20T04:56:40;64.80;;;35.03;;
11777;SDS011;5946;51.770;8.548;2023-03-20T04:59:06;69.40;;;36.33;;
11777;SDS011;5946;51.770;8.548;2023-03-20T05:01:32;72.17;;;37.43;;
11777;SDS011;5946;51.770;8.548;2023-03-20T05:03:58;66.20;;;36.53;;
11777;SDS011;5946;51.770;8.548;2023-03-20T05:06:26;67.63;;;37.07;;
11777;SDS011;5946;51.770;8.548;2023-03-20T05:08:51;65.77;;;36.47;;
11777;SDS011;5946;51.770;8.548;2023-03-20T05:11:17;70.13;;;36.57;;
11777;SDS011;5946;51.770;8.548;2023-03-20T05:13:43;69.57;;;36.97;;
11777;SDS011;5946;51.770;8.548;2023-03-20T05:16:09;67.67;;;37.10;;
11777;SDS011;5946;51.770;8.548;2023-03-20T05:18:35;70.43;;;36.90;;
11777;SDS011;5946;51.770;8.548;2023-03-20T05:21:01;68.53;;;37.40;;
11777;SDS011;5946;51.770;8.548;2023-03-20T05:23:28;66.97;;;37.97;;
11777;SDS011;5946;51.770;8.548;2023-03-20T05:25:54;71.10;;;37.43;;
11777;SDS011;5946;51.770;8.548;2023-03-20T05:28:20;74.23;;;38.80;;
11777;SDS011;5946;51.770;8.548;2023-03-20T05:30:46;70.57;;;38.27;;
11777;SDS011;5946;51.770;8.548;2023-03-20T05:33:12;71.37;;;38.53;;
11777;SDS011;5946;51.770;8.548;2023-03-20T05:35:38;71.47;;;37.67;;
11777;SDS011;5946;51.770;8.548;2023-03-20T05:38:04;73.10;;;38.30;;
11777;SDS011;5946;51.770;8.548;2023-03-20T05:40:30;69.27;;;37.87;;
11777;SDS011;5946;51.770;8.548;2023-03-20T05:42:56;68.67;;;37.03;;
11777;SDS011;5946;51.770;8.548;2023-03-20T05:45:22;70.67;;;39.40;;
11777;SDS011;5946;51.770;8.548;2023-03-20T05:47:48;71.87;;;39.43;;
11777;SDS011;5946;51.770;8.548;2023-03-20T05:50:14;74.47;;;39.37;;
11777;SDS011;5946;51.770;8.548;2023-03-20T05:52:40;70.03;;;37.87;;
11777;SDS011;5946;51.770;8.548;2023-03-20T05:55:06;72.77;;;38.70;;
11777;SDS011;5946;51.770;8.548;2023-03-20T05:57:32;74.20;;;37.20;;
11777;SDS011;5946;51.770;8.548;2023-03-20T05:59:58;69.87;;;36.00;;
11777;SDS011;5946;51.770;8.548;2023-03-20T06:02:25;63.20;;;35.63;;
11777;SDS011;5946;51.770;8.548;2023-03-20T06:04:51;67.50;;;34.90;;
11777;SDS011;5946;51.770;8.548;2023-03-20T06:07:16;63.90;;;33.20;;
11777;SDS011;5946;51.770;8.548;2023-03-20T06:09:42;66.10;;;33.27;;
11777;SDS011;5946;51.770;8.548;2023-03-20T06:12:08;57.90;;;32.30;;
11777;SDS011;5946;51.770;8.548;2023-03-20T06:14:35;51.73;;;28.63;;
11777;SDS011;5946;51.770;8.548;2023-03-20T06:17:01;51.83;;;28.10;;
11777;SDS011;5946;51.770;8.548;2023-03-20T06:19:27;51.23;;;28.67;;
11777;SDS011;5946;51.770;8.548;2023-03-20T06:21:53;47.40;;;26.77;;
11777;SDS011;5946;51.770;8.548;2023-03-20T06:24:19;44.13;;;24.20;;
11777;SDS011;5946;51.770;8.548;2023-03-20T06:26:45;40.07;;;23.87;;
11777;SDS011;5946;51.770;8.548;2023-03-20T06:29:11;40.10;;;24.20;;
11777;SDS011;5946;51.770;8.548;2023-03-20T06:31:37;39.30;;;24.17;;
11777;SDS011;5946;51.770;8.548;2023-03-20T06:34:03;39.13;;;24.17;;
11777;SDS011;5946;51.770;8.548;2023-03-20T06:36:29;37.73;;;22.27;;
11777;SDS011;5946;51.770;8.548;2023-03-20T06:38:56;38.17;;;22.27;;
11777;SDS011;5946;51.770;8.548;2023-03-20T06:41:21;34.20;;;21.73;;
11777;SDS011;5946;51.770;8.548;2023-03-20T06:43:47;34.37;;;21.67;;
11777;SDS011;5946;51.770;8.548;2023-03-20T06:46:13;34.87;;;21.87;;
11777;SDS011;5946;51.770;8.548;2023-03-20T06:48:40;37.67;;;22.70;;
11777;SDS011;5946;51.770;8.548;2023-03-20T06:51:06;34.90;;;21.97;;
11777;SDS011;5946;51.770;8.548;2023-03-20T06:53:32;34.50;;;22.57;;
11777;SDS011;5946;51.770;8.548;2023-03-20T06:56:00;33.93;;;21.30;;
11777;SDS011;5946;51.770;8.548;2023-03-20T06:58:26;32.30;;;20.40;;
11777;SDS011;5946;51.770;8.548;2023-03-20T07:00:52;33.80;;;20.13;;
11777;SDS011;5946;51.770;8.548;2023-03-20T07:03:18;30.90;;;20.00;;
11777;SDS011;5946;51.770;8.548;2023-03-20T07:05:45;31.00;;;19.50;;
11777;SDS011;5946;51.770;8.548;2023-03-20T07:08:12;27.57;;;17.03;;
11777;SDS011;5946;51.770;8.548;2023-03-20T07:10:39;25.43;;;16.90;;
11777;SDS011;5946;51.770;8.548;2023-03-20T07:13:05;26.67;;;17.27;;
11777;SDS011;5946;51.770;8.548;2023-03-20T07:15:30;26.53;;;17.97;;
11777;SDS011;5946;51.770;8.548;2023-03-20T07:17:56;26.20;;;16.40;;
11777;SDS011;5946;51.770;8.548;2023-03-20T07:20:22;25.23;;;16.50;;
11777;SDS011;5946;51.770;8.548;2023-03-20T07:22:48;28.47;;;16.60;;
11777;SDS011;5946;51.770;8.548;2023-03-20T07:25:14;26.87;;;16.77;;
11777;SDS011;5946;51.770;8.548;2023-03-20T07:27:40;23.30;;;16.43;;
11777;SDS011;5946;51.770;8.548;2023-03-20T07:30:10;29.53;;;18.97;;
11777;SDS011;5946;51.770;8.548;2023-03-20T07:32:37;26.83;;;17.87;;
11777;SDS011;5946;51.770;8.548;2023-03-20T07:35:04;25.23;;;16.20;;
11777;SDS011;5946;51.770;8.548;2023-03-20T07:37:31;27.47;;;16.10;;
11777;SDS011;5946;51.770;8.548;2023-03-20T07:39:57;26.80;;;16.93;;
11777;SDS011;5946;51.770;8.548;2023-03-20T07:42:23;25.67;;;16.43;;
11777;SDS011;5946;51.770;8.548;2023-03-20T07:44:49;29.00;;;17.53;;
11777;SDS011;5946;51.770;8.548;2023-03-20T07:47:15;29.57;;;17.90;;
11777;SDS011;5946;51.770;8.548;2023-03-20T07:49:41;25.43;;;17.10;;
11777;SDS011;5946;51.770;8.548;2023-03-20T07:52:07;28.43;;;18.27;;
11777;SDS011;5946;51.770;8.548;2023-03-20T07:54:33;28.97;;;17.67;;
11777;SDS011;5946;51.770;8.548;2023-03-20T07:56:59;29.83;;;17.73;;
11777;SDS011;5946;51.770;8.548;2023-03-20T07:59:25;27.67;;;17.00;;
11777;SDS011;5946;51.770;8.548;2023-03-20T08:01:51;25.50;;;17.37;;
11777;SDS011;5946;51.770;8.548;2023-03-20T08:04:17;25.83;;;17.77;;
11777;SDS011;5946;51.770;8.548;2023-03-20T08:06:46;27.43;;;18.07;;
11777;SDS011;5946;51.770;8.548;2023-03-20T08:09:12;23.70;;;16.67;;
11777;SDS011;5946;51.770;8.548;2023-03-20T08:11:38;26.03;;;17.30;;
11777;SDS011;5946;51.770;8.548;2023-03-20T08:14:04;24.20;;;16.90;;
11777;SDS011;5946;51.770;8.548;2023-03-20T08:16:30;24.80;;;16.40;;
11777;SDS011;5946;51.770;8.548;2023-03-20T08:18:56;25.60;;;16.97;;
11777;SDS011;5946;51.770;8.548;2023-03-20T08:21:26;24.80;;;17.07;;
11777;SDS011;5946;51.770;8.548;2023-03-20T08:23:51;26.37;;;17.37;;
11777;SDS011;5946;51.770;8.548;2023-03-20T08:26:18;26.77;;;17.00;;
11777;SDS011;5946;51.770;8.548;2023-03-20T08:28:44;25.50;;;17.57;;
11777;SDS011;5946;51.770;8.548;2023-03-20T08:31:10;24.20;;;16.47;;
11777;SDS011;5946;51.770;8.548;2023-03-20T08:33:36;25.73;;;17.40;;
11777;SDS011;5946;51.770;8.548;2023-03-20T08:36:02;24.30;;;16.23;;
11777;SDS011;5946;51.770;8.548;2023-03-20T08:38:28;25.17;;;16.60;;
11777;SDS011;5946;51.770;8.548;2023-03-20T08:40:54;26.87;;;16.77;;
11777;SDS011;5946;51.770;8.548;2023-03-20T08:43:20;24.60;;;16.23;;
11777;SDS011;5946;51.770;8.548;2023-03-20T08:45:46;24.97;;;16.83;;
11777;SDS011;5946;51.770;8.548;2023-03-20T08:48:12;24.03;;;15.77;;
11777;SDS011;5946;51.770;8.548;2023-03-20T08:50:38;22.80;;;15.43;;
11777;SDS011;5946;51.770;8.548;2023-03-20T08:53:04;21.57;;;14.33;;
11777;SDS011;5946;51.770;8.548;2023-03-20T08:55:30;21.13;;;14.87;;
11777;SDS011;5946;51.770;8.548;2023-03-20T08:57:57;19.90;;;12.67;;
11777;SDS011;5946;51.770;8.548;2023-03-20T09:00:23;21.17;;;13.63;;
11777;SDS011;5946;51.770;8.548;2023-03-20T09:02:49;20.70;;;13.77;;
11777;SDS011;5946;51.770;8.548;2023-03-20T09:05:15;24.77;;;13.50;;
11777;SDS011;5946;51.770;8.548;2023-03-20T09:07:41;19.33;;;13.33;;
11777;SDS011;5946;51.770;8.548;2023-03-20T09:10:08;21.50;;;13.37;;
11777;SDS011;5946;51.770;8.548;2023-03-20T09:12:34;20.23;;;13.27;;
11777;SDS011;5946;51.770;8.548;2023-03-20T09:15:01;18.00;;;12.77;;
11777;SDS011;5946;51.770;8.548;2023-03-20T09:17:27;19.73;;;12.53;;
11777;SDS011;5946;51.770;8.548;2023-03-20T09:19:53;19.27;;;11.83;;
11777;SDS011;5946;51.770;8.548;2023-03-20T09:22:19;15.23;;;10.90;;
11777;SDS011;5946;51.770;8.548;2023-03-20T09:24:45;16.63;;;11.27;;
11777;SDS011;5946;51.770;8.548;2023-03-20T09:27:11;17.13;;;11.83;;
11777;SDS011;5946;51.770;8.548;2023-03-20T09:29:38;17.03;;;11.80;;
11777;SDS011;5946;51.770;8.548;2023-03-20T09:32:04;18.93;;;11.87;;
11777;SDS011;5946;51.770;8.548;2023-03-20T09:34:30;16.70;;;11.90;;
11777;SDS011;5946;51.770;8.548;2023-03-20T09:36:56;19.20;;;12.10;;
11777;SDS011;5946;51.770;8.548;2023-03-20T09:39:22;15.27;;;11.67;;
11777;SDS011;5946;51.770;8.548;2023-03-20T09:41:48;21.30;;;11.77;;
11777;SDS011;5946;51.770;8.548;2023-03-20T09:44:25;18.20;;;11.70;;
11777;SDS011;5946;51.770;8.548;2023-03-20T09:52:27;14.87;;;11.27;;
11777;SDS011;5946;51.770;8.548;2023-03-20T09:54:53;17.87;;;11.77;;
11777;SDS011;5946;51.770;8.548;2023-03-20T09:57:24;17.90;;;11.90;;
11777;SDS011;5946;51.770;8.548;2023-03-20T09:59:54;20.07;;;13.27;;
11777;SDS011;5946;51.770;8.548;2023-03-20T10:02:22;17.57;;;11.13;;
11777;SDS011;5946;51.770;8.548;2023-03-20T10:04:50;17.57;;;11.03;;
11777;SDS011;5946;51.770;8.548;2023-03-20T10:07:18;16.40;;;11.20;;
11777;SDS011;5946;51.770;8.548;2023-03-20T10:09:44;16.67;;;10.50;;
11777;SDS011;5946;51.770;8.548;2023-03-20T10:12:27;17.47;;;10.93;;
11777;SDS011;5946;51.770;8.548;2023-03-20T10:15:01;17.43;;;10.60;;
11777;SDS011;5946;51.770;8.548;2023-03-20T10:19:57;14.37;;;10.40;;
11777;SDS011;5946;51.770;8.548;2023-03-20T10:22:31;12.20;;;10.10;;
11777;SDS011;5946;51.770;8.548;2023-03-20T10:25:15;14.50;;;10.03;;
11777;SDS011;5946;51.770;8.548;2023-03-20T10:27:59;15.70;;;9.90;;
11777;SDS011;5946;51.770;8.548;2023-03-20T10:30:31;13.87;;;9.40;;
11777;SDS011;5946;51.770;8.548;2023-03-20T10:33:11;15.23;;;9.30;;
11777;SDS011;5946;51.770;8.548;2023-03-20T10:40:51;11.60;;;7.50;;
11777;SDS011;5946;51.770;8.548;2023-03-20T10:43:19;13.50;;;7.93;;
11777;SDS011;5946;51.770;8.548;2023-03-20T10:45:53;13.60;;;8.83;;
11777;SDS011;5946;51.770;8.548;2023-03-20T10:48:23;10.23;;;7.57;;
11777;SDS011;5946;51.770;8.548;2023-03-20T10:50:55;14.07;;;8.07;;
11777;SDS011;5946;51.770;8.548;2023-03-20T10:53:29;11.97;;;8.33;;
11777;SDS011;5946;51.770;8.548;2023-03-20T10:55:56;12.17;;;7.37;;
11777;SDS011;5946;51.770;8.548;2023-03-20T10:58:25;14.17;;;8.57;;
11777;SDS011;5946;51.770;8.548;2023-03-20T11:00:53;11.20;;;7.43;;
11777;SDS011;5946;51.770;8.548;2023-03-20T11:03:27;13.67;;;8.33;;
11777;SDS011;5946;51.770;8.548;2023-03-20T11:05:55;14.20;;;8.27;;
11777;SDS011;5946;51.770;8.548;2023-03-20T11:08:23;12.03;;;8.10;;
11777;SDS011;5946;51.770;8.548;2023-03-20T11:10:57;11.20;;;7.63;;
11777;SDS011;5946;51.770;8.548;2023-03-20T11:15:55;9.80;;;7.27;;
11777;SDS011;5946;51.770;8.548;2023-03-20T11:18:24;13.57;;;9.10;;
11777;SDS011;5946;51.770;8.548;2023-03-20T11:20:51;12.83;;;7.77;;
11777;SDS011;5946;51.770;8.548;2023-03-20T11:23:19;10.47;;;7.83;;
11777;SDS011;5946;51.770;8.548;2023-03-20T11:25:51;10.10;;;7.27;;
11777;SDS011;5946;51.770;8.548;2023-03-20T11:28:31;10.93;;;7.83;;
11777;SDS011;5946;51.770;8.548;2023-03-20T11:31:05;10.93;;;8.10;;
11777;SDS011;5946;51.770;8.548;2023-03-20T11:33:32;11.10;;;8.60;;
11777;SDS011;5946;51.770;8.548;2023-03-20T11:36:00;13.17;;;8.80;;
11777;SDS011;5946;51.770;8.548;2023-03-20T11:38:27;10.67;;;7.77;;
11777;SDS011;5946;51.770;8.548;2023-03-20T11:40:55;11.77;;;8.40;;
11777;SDS011;5946;51.770;8.548;2023-03-20T11:43:25;10.83;;;8.43;;
11777;SDS011;5946;51.770;8.548;2023-03-20T11:45:58;12.47;;;8.87;;
11777;SDS011;5946;51.770;8.548;2023-03-20T11:48:34;13.23;;;9.80;;
11777;SDS011;5946;51.770;8.548;2023-03-20T11:51:05;13.53;;;8.20;;
11777;SDS011;5946;51.770;8.548;2023-03-20T11:53:34;12.10;;;8.27;;
11777;SDS011;5946;51.770;8.548;2023-03-20T11:58:30;13.03;;;8.33;;
11777;SDS011;5946;51.770;8.548;2023-03-20T12:00:56;12.50;;;8.70;;
11777;SDS011;5946;51.770;8.548;2023-03-20T12:06:14;15.87;;;8.90;;
11777;SDS011;5946;51.770;8.548;2023-03-20T12:08:40;12.60;;;8.47;;
11777;SDS011;5946;51.770;8.548;2023-03-20T12:11:16;13.90;;;8.60;;
11777;SDS011;5946;51.770;8.548;2023-03-20T12:13:44;13.57;;;8.90;;
11777;SDS011;5946;51.770;8.548;2023-03-20T12:16:14;16.07;;;9.40;;
11777;SDS011;5946;51.770;8.548;2023-03-20T12:18:41;11.57;;;7.63;;
11777;SDS011;5946;51.770;8.548;2023-03-20T12:21:10;12.87;;;8.03;;
11777;SDS011;5946;51.770;8.548;2023-03-20T12:28:43;16.00;;;9.13;;
11777;SDS011;5946;51.770;8.548;2023-03-20T12:31:15;16.33;;;9.07;;
11777;SDS011;5946;51.770;8.548;2023-03-20T12:33:50;13.47;;;8.80;;
11777;SDS011;5946;51.770;8.548;2023-03-20T12:36:20;11.63;;;7.87;;
11777;SDS011;5946;51.770;8.548;2023-03-20T12:38:50;12.07;;;7.63;;
11777;SDS011;5946;51.770;8.548;2023-03-20T12:44:04;12.03;;;7.20;;
11777;SDS011;5946;51.770;8.548;2023-03-20T12:59:22;11.83;;;6.10;;
11777;SDS011;5946;51.770;8.548;2023-03-20T13:01:54;12.87;;;6.30;;
11777;SDS011;5946;51.770;8.548;2023-03-20T13:04:28;10.00;;;6.33;;
11777;SDS011;5946;51.770;8.548;2023-03-20T13:07:04;9.53;;;6.33;;
11777;SDS011;5946;51.770;8.548;2023-03-20T13:14:45;9.67;;;5.87;;
11777;SDS011;5946;51.770;8.548;2023-03-20T13:17:24;9.57;;;5.90;;
11777;SDS011;5946;51.770;8.548;2023-03-20T13:22:35;9.77;;;5.60;;
11777;SDS011;5946;51.770;8.548;2023-03-20T13:25:09;9.40;;;5.43;;
11777;SDS011;5946;51.770;8.548;2023-03-20T13:28:26;12.77;;;6.10;;
11777;SDS011;5946;51.770;8.548;2023-03-20T13:33:22;8.23;;;5.63;;
11777;SDS011;5946;51.770;8.548;2023-03-20T13:38:22;8.17;;;5.07;;
11777;SDS011;5946;51.770;8.548;2023-03-20T13:40:54;12.17;;;5.50;;
11777;SDS011;5946;51.770;8.548;2023-03-20T13:43:24;10.73;;;5.43;;
11777;SDS011;5946;51.770;8.548;2023-03-20T13:45:55;9.00;;;5.63;;
11777;SDS011;5946;51.770;8.548;2023-03-20T13:48:34;14.57;;;5.27;;
11777;SDS011;5946;51.770;8.548;2023-03-20T13:51:09;10.10;;;5.00;;
11777;SDS011;5946;51.770;8.548;2023-03-20T13:53:44;11.57;;;5.23;;
11777;SDS011;5946;51.770;8.548;2023-03-20T14:01:37;8.90;;;5.20;;
11777;SDS011;5946;51.770;8.548;2023-03-20T14:04:07;8.50;;;4.90;;
11777;SDS011;5946;51.770;8.548;2023-03-20T14:06:44;10.03;;;4.37;;
11777;SDS011;5946;51.770;8.548;2023-03-20T14:12:08;10.50;;;5.20;;
11777;SDS011;5946;51.770;8.548;2023-03-20T14:19:34;9.30;;;4.43;;
11777;SDS011;5946;51.770;8.548;2023-03-20T14:22:02;8.97;;;4.33;;
11777;SDS011;5946;51.770;8.548;2023-03-20T14:24:28;8.23;;;3.73;;
11777;SDS011;5946;51.770;8.548;2023-03-20T14:26:56;6.37;;;3.90;;
11777;SDS011;5946;51.770;8.548;2023-03-20T14:34:42;9.77;;;4.10;;
11777;SDS011;5946;51.770;8.548;2023-03-20T14:37:26;6.30;;;3.73;;
11777;SDS011;5946;51.770;8.548;2023-03-20T14:39:56;8.33;;;4.00;;
11777;SDS011;5946;51.770;8.548;2023-03-20T14:53:19;8.80;;;4.20;;
11777;SDS011;5946;51.770;8.548;2023-03-20T14:58:33;10.57;;;3.80;;
11777;SDS011;5946;51.770;8.548;2023-03-20T15:01:01;11.33;;;4.33;;
11777;SDS011;5946;51.770;8.548;2023-03-20T15:03:28;5.73;;;3.90;;
11777;SDS011;5946;51.770;8.548;2023-03-20T15:05:55;7.10;;;3.70;;
11777;SDS011;5946;51.770;8.548;2023-03-20T15:08:23;5.50;;;3.87;;
11777;SDS011;5946;51.770;8.548;2023-03-20T15:10:53;6.20;;;4.00;;
11777;SDS011;5946;51.770;8.548;2023-03-20T15:13:20;8.33;;;4.23;;
11777;SDS011;5946;51.770;8.548;2023-03-20T15:15:55;6.23;;;4.00;;
11777;SDS011;5946;51.770;8.548;2023-03-20T15:18:23;10.30;;;5.87;;
11777;SDS011;5946;51.770;8.548;2023-03-20T15:20:49;8.50;;;5.00;;
11777;SDS011;5946;51.770;8.548;2023-03-20T15:23:15;11.33;;;5.67;;
11777;SDS011;5946;51.770;8.548;2023-03-20T15:25:42;13.03;;;5.93;;
11777;SDS011;5946;51.770;8.548;2023-03-20T15:28:26;10.43;;;5.70;;
11777;SDS011;5946;51.770;8.548;2023-03-20T15:30:55;9.03;;;5.57;;
11777;SDS011;5946;51.770;8.548;2023-03-20T15:35:47;9.43;;;4.90;;
11777;SDS011;5946;51.770;8.548;2023-03-20T15:38:15;7.23;;;5.13;;
11777;SDS011;5946;51.770;8.548;2023-03-20T15:40:41;8.73;;;5.50;;
11777;SDS011;5946;51.770;8.548;2023-03-20T15:43:16;8.73;;;5.50;;
11777;SDS011;5946;51.770;8.548;2023-03-20T15:45:43;9.63;;;5.93;;
11777;SDS011;5946;51.770;8.548;2023-03-20T15:48:13;16.53;;;5.77;;
11777;SDS011;5946;51.770;8.548;2023-03-20T15:50:40;8.57;;;6.13;;
11777;SDS011;5946;51.770;8.548;2023-03-20T15:53:10;14.00;;;6.30;;
11777;SDS011;5946;51.770;8.548;2023-03-20T15:55:38;9.67;;;7.03;;
11777;SDS011;5946;51.770;8.548;2023-03-20T15:58:04;8.37;;;6.87;;
11777;SDS011;5946;51.770;8.548;2023-03-20T16:00:31;11.30;;;7.00;;
11777;SDS011;5946;51.770;8.548;2023-03-20T16:02:59;9.07;;;6.80;;
11777;SDS011;5946;51.770;8.548;2023-03-20T16:05:27;8.50;;;7.30;;
11777;SDS011;5946;51.770;8.548;2023-03-20T16:07:53;15.77;;;7.73;;
11777;SDS011;5946;51.770;8.548;2023-03-20T16:10:23;10.43;;;8.00;;
11777;SDS011;5946;51.770;8.548;2023-03-20T16:12:50;16.13;;;8.63;;
11777;SDS011;5946;51.770;8.548;2023-03-20T16:15:19;10.17;;;8.33;;
11777;SDS011;5946;51.770;8.548;2023-03-20T16:17:46;10.80;;;8.50;;
11777;SDS011;5946;51.770;8.548;2023-03-20T16:20:13;11.63;;;9.10;;
11777;SDS011;5946;51.770;8.548;2023-03-20T16:22:39;11.07;;;9.27;;
11777;SDS011;5946;51.770;8.548;2023-03-20T16:25:08;14.30;;;10.40;;
11777;SDS011;5946;51.770;8.548;2023-03-20T16:27:37;13.90;;;10.53;;
11777;SDS011;5946;51.770;8.548;2023-03-20T16:30:05;13.10;;;10.63;;
11777;SDS011;5946;51.770;8.548;2023-03-20T16:32:37;15.53;;;11.67;;
11777;SDS011;5946;51.770;8.548;2023-03-20T16:35:05;12.07;;;10.87;;
11777;SDS011;5946;51.770;8.548;2023-03-20T16:37:43;14.90;;;12.17;;
11777;SDS011;5946;51.770;8.548;2023-03-20T16:42:38;16.77;;;12.47;;
11777;SDS011;5946;51.770;8.548;2023-03-20T16:45:05;16.40;;;12.33;;
11777;SDS011;5946;51.770;8.548;2023-03-20T16:47:35;20.20;;;14.17;;
11777;SDS011;5946;51.770;8.548;2023-03-20T16:52:29;17.80;;;13.57;;
11777;SDS011;5946;51.770;8.548;2023-03-20T16:54:56;17.43;;;14.13;;
11777;SDS011;5946;51.770;8.548;2023-03-20T16:57:22;19.73;;;14.00;;